sensor_id;sensor_type;location;lat;lon;timestamp;P1;durP1;ratioP1;P2;durP2;ratioP2
73142;SDS011;61343;53.694;9.988;2022-08-19T00:01:51;19.75;;;11.75;;
73142;SDS011;61343;53.694;9.988;2022-08-19T00:04:20;24.67;;;13.02;;
73142;SDS011;61343;53.694;9.988;2022-08-19T00:06:47;20.65;;;11.95;;
73142;SDS011;61343;53.694;9.988;2022-08-19T00:09:13;21.57;;;12.57;;
73142;SDS011;61343;53.694;9.988;2022-08-19T00:11:42;21.83;;;13.02;;
73142;SDS011;61343;53.694;9.988;2022-08-19T00:14:09;22.65;;;13.05;;
73142;SDS011;61343;53.694;9.988;2022-08-19T00:16:37;27.67;;;13.60;;
73142;SDS011;61343;53.694;9.988;2022-08-19T00:19:04;25.67;;;14.27;;
73142;SDS011;61343;53.694;9.988;2022-08-19T00:21:30;25.00;;;12.80;;
73142;SDS011;61343;53.694;9.988;2022-08-19T00:23:55;24.97;;;12.87;;
73142;SDS011;61343;53.694;9.988;2022-08-19T00:26:23;24.50;;;13.77;;
73142;SDS011;61343;53.694;9.988;2022-08-19T00:28:49;21.75;;;13.00;;
73142;SDS011;61343;53.694;9.988;2022-08-19T00:31:14;26.47;;;15.57;;
73142;SDS011;61343;53.694;9.988;2022-08-19T00:33:41;25.65;;;14.63;;
73142;SDS011;61343;53.694;9.988;2022-08-19T00:36:07;25.53;;;13.57;;
73142;SDS011;61343;53.694;9.988;2022-08-19T00:38:34;27.23;;;14.85;;
73142;SDS011;61343;53.694;9.988;2022-08-19T00:41:01;28.33;;;15.10;;
73142;SDS011;61343;53.694;9.988;2022-08-19T00:43:27;31.57;;;14.70;;
73142;SDS011;61343;53.694;9.988;2022-08-19T00:45:53;25.45;;;14.52;;
73142;SDS011;61343;53.694;9.988;2022-08-19T00:48:19;26.10;;;14.68;;
73142;SDS011;61343;53.694;9.988;2022-08-19T00:50:45;26.70;;;15.20;;
73142;SDS011;61343;53.694;9.988;2022-08-19T00:53:14;29.65;;;15.10;;
73142;SDS011;61343;53.694;9.988;2022-08-19T00:55:42;28.20;;;15.00;;
73142;SDS011;61343;53.694;9.988;2022-08-19T00:58:12;25.38;;;14.95;;
73142;SDS011;61343;53.694;9.988;2022-08-19T01:00:40;27.38;;;15.18;;
73142;SDS011;61343;53.694;9.988;2022-08-19T01:03:07;26.00;;;15.07;;
73142;SDS011;61343;53.694;9.988;2022-08-19T01:05:35;28.10;;;14.75;;
73142;SDS011;61343;53.694;9.988;2022-08-19T01:08:02;27.63;;;14.85;;
73142;SDS011;61343;53.694;9.988;2022-08-19T01:10:30;25.85;;;15.20;;
73142;SDS011;61343;53.694;9.988;2022-08-19T01:12:59;29.00;;;16.20;;
73142;SDS011;61343;53.694;9.988;2022-08-19T01:15:30;30.02;;;16.05;;
73142;SDS011;61343;53.694;9.988;2022-08-19T01:17:59;29.58;;;16.88;;
73142;SDS011;61343;53.694;9.988;2022-08-19T01:20:29;32.60;;;16.48;;
73142;SDS011;61343;53.694;9.988;2022-08-19T01:22:56;32.63;;;17.30;;
73142;SDS011;61343;53.694;9.988;2022-08-19T01:25:24;34.42;;;17.00;;
73142;SDS011;61343;53.694;9.988;2022-08-19T01:27:53;35.60;;;17.42;;
73142;SDS011;61343;53.694;9.988;2022-08-19T01:30:24;27.87;;;16.53;;
73142;SDS011;61343;53.694;9.988;2022-08-19T01:32:52;31.10;;;16.35;;
73142;SDS011;61343;53.694;9.988;2022-08-19T01:35:19;34.33;;;16.05;;
73142;SDS011;61343;53.694;9.988;2022-08-19T01:37:53;35.20;;;18.20;;
73142;SDS011;61343;53.694;9.988;2022-08-19T01:40:22;37.63;;;18.77;;
73142;SDS011;61343;53.694;9.988;2022-08-19T01:42:51;34.75;;;17.20;;
73142;SDS011;61343;53.694;9.988;2022-08-19T01:45:18;34.58;;;17.40;;
73142;SDS011;61343;53.694;9.988;2022-08-19T01:47:45;36.75;;;16.95;;
73142;SDS011;61343;53.694;9.988;2022-08-19T01:50:11;33.70;;;16.70;;
73142;SDS011;61343;53.694;9.988;2022-08-19T01:52:37;41.10;;;17.95;;
73142;SDS011;61343;53.694;9.988;2022-08-19T01:55:04;37.63;;;17.33;;
73142;SDS011;61343;53.694;9.988;2022-08-19T01:57:31;36.85;;;16.92;;
73142;SDS011;61343;53.694;9.988;2022-08-19T01:59:56;38.25;;;17.58;;
73142;SDS011;61343;53.694;9.988;2022-08-19T02:02:22;44.47;;;18.07;;
73142;SDS011;61343;53.694;9.988;2022-08-19T02:04:48;39.43;;;17.03;;
73142;SDS011;61343;53.694;9.988;2022-08-19T02:07:13;37.40;;;17.05;;
73142;SDS011;61343;53.694;9.988;2022-08-19T02:09:38;38.73;;;17.33;;
73142;SDS011;61343;53.694;9.988;2022-08-19T02:12:04;42.47;;;17.97;;
73142;SDS011;61343;53.694;9.988;2022-08-19T02:14:30;37.95;;;16.90;;
73142;SDS011;61343;53.694;9.988;2022-08-19T02:16:56;38.07;;;17.73;;
73142;SDS011;61343;53.694;9.988;2022-08-19T02:19:21;39.33;;;17.33;;
73142;SDS011;61343;53.694;9.988;2022-08-19T02:21:47;42.45;;;16.75;;
73142;SDS011;61343;53.694;9.988;2022-08-19T02:24:12;44.43;;;19.00;;
73142;SDS011;61343;53.694;9.988;2022-08-19T02:26:37;39.90;;;17.60;;
73142;SDS011;61343;53.694;9.988;2022-08-19T02:29:03;40.63;;;17.47;;
73142;SDS011;61343;53.694;9.988;2022-08-19T02:31:28;41.20;;;17.70;;
73142;SDS011;61343;53.694;9.988;2022-08-19T02:33:54;43.37;;;17.33;;
73142;SDS011;61343;53.694;9.988;2022-08-19T02:36:20;39.15;;;16.77;;
73142;SDS011;61343;53.694;9.988;2022-08-19T02:38:46;42.43;;;17.83;;
73142;SDS011;61343;53.694;9.988;2022-08-19T02:41:16;41.47;;;17.50;;
73142;SDS011;61343;53.694;9.988;2022-08-19T02:43:44;37.10;;;17.23;;
73142;SDS011;61343;53.694;9.988;2022-08-19T02:46:11;42.53;;;17.30;;
73142;SDS011;61343;53.694;9.988;2022-08-19T02:48:48;36.38;;;17.17;;
73142;SDS011;61343;53.694;9.988;2022-08-19T02:51:16;37.58;;;17.35;;
73142;SDS011;61343;53.694;9.988;2022-08-19T02:53:43;41.17;;;16.55;;
73142;SDS011;61343;53.694;9.988;2022-08-19T02:56:09;32.33;;;15.30;;
73142;SDS011;61343;53.694;9.988;2022-08-19T02:58:34;34.30;;;15.50;;
73142;SDS011;61343;53.694;9.988;2022-08-19T03:00:59;36.00;;;15.77;;
73142;SDS011;61343;53.694;9.988;2022-08-19T03:03:25;32.10;;;15.05;;
73142;SDS011;61343;53.694;9.988;2022-08-19T03:05:51;31.93;;;14.70;;
73142;SDS011;61343;53.694;9.988;2022-08-19T03:08:16;31.27;;;15.10;;
73142;SDS011;61343;53.694;9.988;2022-08-19T03:10:43;38.30;;;15.80;;
73142;SDS011;61343;53.694;9.988;2022-08-19T03:13:12;33.92;;;14.95;;
73142;SDS011;61343;53.694;9.988;2022-08-19T03:15:40;31.65;;;15.23;;
73142;SDS011;61343;53.694;9.988;2022-08-19T03:18:07;29.20;;;14.43;;
73142;SDS011;61343;53.694;9.988;2022-08-19T03:20:32;30.80;;;15.13;;
73142;SDS011;61343;53.694;9.988;2022-08-19T03:22:58;33.03;;;14.73;;
73142;SDS011;61343;53.694;9.988;2022-08-19T03:25:23;24.50;;;13.60;;
73142;SDS011;61343;53.694;9.988;2022-08-19T03:27:49;29.73;;;15.10;;
73142;SDS011;61343;53.694;9.988;2022-08-19T03:30:14;30.80;;;15.00;;
73142;SDS011;61343;53.694;9.988;2022-08-19T03:32:40;29.03;;;14.33;;
73142;SDS011;61343;53.694;9.988;2022-08-19T03:35:05;26.80;;;14.20;;
73142;SDS011;61343;53.694;9.988;2022-08-19T03:37:31;28.20;;;14.27;;
73142;SDS011;61343;53.694;9.988;2022-08-19T03:39:56;24.90;;;13.70;;
73142;SDS011;61343;53.694;9.988;2022-08-19T03:42:22;34.60;;;16.33;;
73142;SDS011;61343;53.694;9.988;2022-08-19T03:44:47;33.53;;;15.93;;
73142;SDS011;61343;53.694;9.988;2022-08-19T03:47:12;35.67;;;16.70;;
73142;SDS011;61343;53.694;9.988;2022-08-19T03:49:41;39.45;;;16.67;;
73142;SDS011;61343;53.694;9.988;2022-08-19T03:52:06;38.63;;;17.43;;
73142;SDS011;61343;53.694;9.988;2022-08-19T03:54:32;44.55;;;17.08;;
73142;SDS011;61343;53.694;9.988;2022-08-19T03:56:58;38.97;;;17.33;;
73142;SDS011;61343;53.694;9.988;2022-08-19T03:59:25;40.15;;;17.60;;
73142;SDS011;61343;53.694;9.988;2022-08-19T04:01:53;41.53;;;16.87;;
73142;SDS011;61343;53.694;9.988;2022-08-19T04:04:20;34.47;;;16.20;;
73142;SDS011;61343;53.694;9.988;2022-08-19T04:06:46;43.20;;;18.02;;
73142;SDS011;61343;53.694;9.988;2022-08-19T04:09:12;41.40;;;16.85;;
73142;SDS011;61343;53.694;9.988;2022-08-19T04:11:42;39.40;;;18.03;;
73142;SDS011;61343;53.694;9.988;2022-08-19T04:14:11;38.08;;;17.63;;
73142;SDS011;61343;53.694;9.988;2022-08-19T04:16:38;35.72;;;16.50;;
73142;SDS011;61343;53.694;9.988;2022-08-19T04:19:04;42.83;;;17.53;;
73142;SDS011;61343;53.694;9.988;2022-08-19T04:21:30;39.47;;;17.77;;
73142;SDS011;61343;53.694;9.988;2022-08-19T04:23:56;46.43;;;18.80;;
73142;SDS011;61343;53.694;9.988;2022-08-19T04:26:23;44.83;;;19.45;;
73142;SDS011;61343;53.694;9.988;2022-08-19T04:28:51;50.95;;;19.88;;
73142;SDS011;61343;53.694;9.988;2022-08-19T04:31:19;51.30;;;20.83;;
73142;SDS011;61343;53.694;9.988;2022-08-19T04:33:46;54.10;;;20.92;;
73142;SDS011;61343;53.694;9.988;2022-08-19T04:36:19;43.07;;;19.67;;
73142;SDS011;61343;53.694;9.988;2022-08-19T04:38:47;51.85;;;19.80;;
73142;SDS011;61343;53.694;9.988;2022-08-19T04:41:14;49.35;;;20.60;;
73142;SDS011;61343;53.694;9.988;2022-08-19T04:43:57;48.33;;;20.20;;
73142;SDS011;61343;53.694;9.988;2022-08-19T04:46:23;46.13;;;20.63;;
73142;SDS011;61343;53.694;9.988;2022-08-19T04:48:48;51.47;;;21.40;;
73142;SDS011;61343;53.694;9.988;2022-08-19T04:51:14;52.43;;;22.40;;
73142;SDS011;61343;53.694;9.988;2022-08-19T04:53:40;54.08;;;22.35;;
73142;SDS011;61343;53.694;9.988;2022-08-19T04:56:13;54.00;;;23.00;;
73142;SDS011;61343;53.694;9.988;2022-08-19T04:58:41;50.45;;;23.55;;
73142;SDS011;61343;53.694;9.988;2022-08-19T05:01:08;58.07;;;23.50;;
73142;SDS011;61343;53.694;9.988;2022-08-19T05:03:37;60.45;;;24.23;;
73142;SDS011;61343;53.694;9.988;2022-08-19T05:06:10;52.07;;;22.93;;
73142;SDS011;61343;53.694;9.988;2022-08-19T05:08:38;50.10;;;23.10;;
73142;SDS011;61343;53.694;9.988;2022-08-19T05:11:12;51.28;;;23.70;;
73142;SDS011;61343;53.694;9.988;2022-08-19T05:13:41;52.90;;;22.80;;
73142;SDS011;61343;53.694;9.988;2022-08-19T05:16:08;52.25;;;21.80;;
73142;SDS011;61343;53.694;9.988;2022-08-19T05:18:35;49.03;;;21.33;;
73142;SDS011;61343;53.694;9.988;2022-08-19T05:21:20;48.13;;;20.55;;
73142;SDS011;61343;53.694;9.988;2022-08-19T05:24:05;42.80;;;21.05;;
73142;SDS011;61343;53.694;9.988;2022-08-19T05:26:34;46.63;;;21.33;;
73142;SDS011;61343;53.694;9.988;2022-08-19T05:29:02;42.53;;;18.92;;
73142;SDS011;61343;53.694;9.988;2022-08-19T05:31:29;38.30;;;18.07;;
73142;SDS011;61343;53.694;9.988;2022-08-19T05:33:55;36.58;;;17.05;;
73142;SDS011;61343;53.694;9.988;2022-08-19T05:36:23;37.95;;;17.67;;
73142;SDS011;61343;53.694;9.988;2022-08-19T05:38:48;34.30;;;17.27;;
73142;SDS011;61343;53.694;9.988;2022-08-19T05:41:14;37.13;;;18.23;;
73142;SDS011;61343;53.694;9.988;2022-08-19T05:43:42;36.38;;;17.23;;
73142;SDS011;61343;53.694;9.988;2022-08-19T05:46:07;35.80;;;17.57;;
73142;SDS011;61343;53.694;9.988;2022-08-19T05:48:34;38.45;;;17.20;;
73142;SDS011;61343;53.694;9.988;2022-08-19T05:51:06;38.80;;;17.63;;
73142;SDS011;61343;53.694;9.988;2022-08-19T05:53:33;37.10;;;17.30;;
73142;SDS011;61343;53.694;9.988;2022-08-19T05:56:03;37.25;;;16.35;;
73142;SDS011;61343;53.694;9.988;2022-08-19T05:58:32;33.30;;;16.85;;
73142;SDS011;61343;53.694;9.988;2022-08-19T06:00:58;33.93;;;17.37;;
73142;SDS011;61343;53.694;9.988;2022-08-19T06:03:29;33.33;;;16.27;;
73142;SDS011;61343;53.694;9.988;2022-08-19T06:05:55;34.55;;;15.90;;
73142;SDS011;61343;53.694;9.988;2022-08-19T06:08:20;33.33;;;15.90;;
73142;SDS011;61343;53.694;9.988;2022-08-19T06:10:46;33.90;;;15.97;;
73142;SDS011;61343;53.694;9.988;2022-08-19T06:13:11;31.23;;;15.87;;
73142;SDS011;61343;53.694;9.988;2022-08-19T06:15:36;30.73;;;16.53;;
73142;SDS011;61343;53.694;9.988;2022-08-19T06:18:01;34.27;;;15.90;;
73142;SDS011;61343;53.694;9.988;2022-08-19T06:20:27;33.72;;;15.95;;
73142;SDS011;61343;53.694;9.988;2022-08-19T06:22:52;34.73;;;15.53;;
73142;SDS011;61343;53.694;9.988;2022-08-19T06:25:18;32.20;;;15.20;;
73142;SDS011;61343;53.694;9.988;2022-08-19T06:27:44;30.65;;;15.80;;
73142;SDS011;61343;53.694;9.988;2022-08-19T06:30:09;27.73;;;14.47;;
73142;SDS011;61343;53.694;9.988;2022-08-19T06:32:36;28.80;;;14.98;;
73142;SDS011;61343;53.694;9.988;2022-08-19T06:35:01;33.03;;;14.50;;
73142;SDS011;61343;53.694;9.988;2022-08-19T06:37:26;28.03;;;14.50;;
73142;SDS011;61343;53.694;9.988;2022-08-19T06:39:52;26.53;;;13.77;;
73142;SDS011;61343;53.694;9.988;2022-08-19T06:42:17;30.90;;;14.70;;
73142;SDS011;61343;53.694;9.988;2022-08-19T06:44:44;26.25;;;13.85;;
73142;SDS011;61343;53.694;9.988;2022-08-19T06:47:13;28.17;;;14.00;;
73142;SDS011;61343;53.694;9.988;2022-08-19T06:49:40;30.92;;;15.95;;
73142;SDS011;61343;53.694;9.988;2022-08-19T06:52:06;30.60;;;14.83;;
73142;SDS011;61343;53.694;9.988;2022-08-19T06:54:31;30.20;;;15.80;;
73142;SDS011;61343;53.694;9.988;2022-08-19T06:56:57;26.65;;;15.05;;
73142;SDS011;61343;53.694;9.988;2022-08-19T06:59:26;33.77;;;15.57;;
73142;SDS011;61343;53.694;9.988;2022-08-19T07:01:53;31.52;;;15.68;;
73142;SDS011;61343;53.694;9.988;2022-08-19T07:04:20;31.00;;;15.20;;
73142;SDS011;61343;53.694;9.988;2022-08-19T07:06:48;32.78;;;16.17;;
73142;SDS011;61343;53.694;9.988;2022-08-19T07:09:15;31.60;;;16.70;;
73142;SDS011;61343;53.694;9.988;2022-08-19T07:11:46;29.77;;;15.70;;
73142;SDS011;61343;53.694;9.988;2022-08-19T07:14:14;32.25;;;16.10;;
73142;SDS011;61343;53.694;9.988;2022-08-19T07:16:43;32.43;;;15.57;;
73142;SDS011;61343;53.694;9.988;2022-08-19T07:19:09;32.20;;;15.65;;
73142;SDS011;61343;53.694;9.988;2022-08-19T07:21:35;34.77;;;16.73;;
73142;SDS011;61343;53.694;9.988;2022-08-19T07:24:00;32.90;;;16.15;;
73142;SDS011;61343;53.694;9.988;2022-08-19T07:26:26;33.67;;;15.37;;
73142;SDS011;61343;53.694;9.988;2022-08-19T07:28:55;32.97;;;17.00;;
73142;SDS011;61343;53.694;9.988;2022-08-19T07:31:23;33.93;;;16.20;;
73142;SDS011;61343;53.694;9.988;2022-08-19T07:33:50;37.00;;;17.33;;
73142;SDS011;61343;53.694;9.988;2022-08-19T07:36:18;38.33;;;16.90;;
73142;SDS011;61343;53.694;9.988;2022-08-19T07:38:46;33.85;;;15.90;;
73142;SDS011;61343;53.694;9.988;2022-08-19T07:41:15;35.38;;;16.40;;
73142;SDS011;61343;53.694;9.988;2022-08-19T07:43:45;34.83;;;16.80;;
73142;SDS011;61343;53.694;9.988;2022-08-19T07:46:12;32.92;;;15.85;;
73142;SDS011;61343;53.694;9.988;2022-08-19T07:48:39;32.80;;;15.77;;
73142;SDS011;61343;53.694;9.988;2022-08-19T07:51:06;35.28;;;16.42;;
73142;SDS011;61343;53.694;9.988;2022-08-19T07:53:33;31.60;;;15.57;;
73142;SDS011;61343;53.694;9.988;2022-08-19T07:55:59;34.57;;;16.77;;
73142;SDS011;61343;53.694;9.988;2022-08-19T07:58:29;31.63;;;16.00;;
73142;SDS011;61343;53.694;9.988;2022-08-19T08:01:00;40.03;;;16.60;;
73142;SDS011;61343;53.694;9.988;2022-08-19T08:03:26;29.15;;;14.93;;
73142;SDS011;61343;53.694;9.988;2022-08-19T08:06:11;27.97;;;15.10;;
73142;SDS011;61343;53.694;9.988;2022-08-19T08:08:57;31.92;;;15.57;;
73142;SDS011;61343;53.694;9.988;2022-08-19T08:11:48;30.30;;;14.70;;
73142;SDS011;61343;53.694;9.988;2022-08-19T08:14:15;32.20;;;15.18;;
73142;SDS011;61343;53.694;9.988;2022-08-19T08:16:42;31.58;;;14.95;;
73142;SDS011;61343;53.694;9.988;2022-08-19T08:19:09;31.70;;;15.27;;
73142;SDS011;61343;53.694;9.988;2022-08-19T08:21:34;32.55;;;15.48;;
73142;SDS011;61343;53.694;9.988;2022-08-19T08:24:01;29.98;;;14.90;;
73142;SDS011;61343;53.694;9.988;2022-08-19T08:26:26;37.50;;;15.73;;
73142;SDS011;61343;53.694;9.988;2022-08-19T08:28:52;29.60;;;15.10;;
73142;SDS011;61343;53.694;9.988;2022-08-19T08:31:18;30.88;;;14.60;;
73142;SDS011;61343;53.694;9.988;2022-08-19T08:33:44;31.67;;;15.55;;
73142;SDS011;61343;53.694;9.988;2022-08-19T08:36:10;32.83;;;15.60;;
73142;SDS011;61343;53.694;9.988;2022-08-19T08:38:36;33.60;;;15.60;;
73142;SDS011;61343;53.694;9.988;2022-08-19T08:41:14;31.02;;;15.02;;
73142;SDS011;61343;53.694;9.988;2022-08-19T08:43:48;32.47;;;15.27;;
73142;SDS011;61343;53.694;9.988;2022-08-19T08:49:01;34.33;;;15.38;;
73142;SDS011;61343;53.694;9.988;2022-08-19T08:51:38;30.35;;;15.50;;
73142;SDS011;61343;53.694;9.988;2022-08-19T08:54:08;35.90;;;15.65;;
73142;SDS011;61343;53.694;9.988;2022-08-19T08:56:40;34.80;;;15.40;;
73142;SDS011;61343;53.694;9.988;2022-08-19T08:59:10;29.87;;;15.20;;
73142;SDS011;61343;53.694;9.988;2022-08-19T09:01:43;37.15;;;16.65;;
73142;SDS011;61343;53.694;9.988;2022-08-19T09:04:09;32.07;;;15.60;;
73142;SDS011;61343;53.694;9.988;2022-08-19T09:06:39;34.05;;;15.77;;
73142;SDS011;61343;53.694;9.988;2022-08-19T09:09:17;30.80;;;14.20;;
73142;SDS011;61343;53.694;9.988;2022-08-19T09:11:55;28.35;;;15.20;;
73142;SDS011;61343;53.694;9.988;2022-08-19T09:14:42;30.05;;;15.32;;
73142;SDS011;61343;53.694;9.988;2022-08-19T09:17:14;33.10;;;16.00;;
73142;SDS011;61343;53.694;9.988;2022-08-19T09:19:50;31.92;;;15.10;;
73142;SDS011;61343;53.694;9.988;2022-08-19T09:22:21;33.05;;;15.95;;
73142;SDS011;61343;53.694;9.988;2022-08-19T09:24:47;31.92;;;16.40;;
73142;SDS011;61343;53.694;9.988;2022-08-19T09:27:17;32.63;;;16.87;;
73142;SDS011;61343;53.694;9.988;2022-08-19T09:29:43;33.80;;;16.25;;
73142;SDS011;61343;53.694;9.988;2022-08-19T09:32:08;36.10;;;17.43;;
73142;SDS011;61343;53.694;9.988;2022-08-19T09:34:33;35.57;;;16.30;;
73142;SDS011;61343;53.694;9.988;2022-08-19T09:36:59;28.37;;;14.93;;
73142;SDS011;61343;53.694;9.988;2022-08-19T09:39:25;33.03;;;15.53;;
73142;SDS011;61343;53.694;9.988;2022-08-19T09:41:50;29.02;;;15.70;;
73142;SDS011;61343;53.694;9.988;2022-08-19T09:44:16;31.20;;;16.13;;
73142;SDS011;61343;53.694;9.988;2022-08-19T09:46:42;31.30;;;15.55;;
73142;SDS011;61343;53.694;9.988;2022-08-19T09:49:07;31.60;;;15.60;;
73142;SDS011;61343;53.694;9.988;2022-08-19T09:51:33;31.17;;;15.30;;
73142;SDS011;61343;53.694;9.988;2022-08-19T09:54:00;32.03;;;16.07;;
73142;SDS011;61343;53.694;9.988;2022-08-19T09:56:28;32.15;;;15.73;;
73142;SDS011;61343;53.694;9.988;2022-08-19T09:58:57;31.38;;;15.70;;
73142;SDS011;61343;53.694;9.988;2022-08-19T10:01:27;29.10;;;15.73;;
73142;SDS011;61343;53.694;9.988;2022-08-19T10:03:54;31.95;;;15.82;;
73142;SDS011;61343;53.694;9.988;2022-08-19T10:06:24;30.03;;;14.87;;
73142;SDS011;61343;53.694;9.988;2022-08-19T10:08:54;27.48;;;15.48;;
73142;SDS011;61343;53.694;9.988;2022-08-19T10:11:20;29.33;;;15.80;;
73142;SDS011;61343;53.694;9.988;2022-08-19T10:13:46;28.73;;;15.35;;
73142;SDS011;61343;53.694;9.988;2022-08-19T10:16:14;26.58;;;15.05;;
73142;SDS011;61343;53.694;9.988;2022-08-19T10:18:42;27.55;;;14.45;;
73142;SDS011;61343;53.694;9.988;2022-08-19T10:21:10;25.80;;;14.33;;
73142;SDS011;61343;53.694;9.988;2022-08-19T10:23:36;27.70;;;14.75;;
73142;SDS011;61343;53.694;9.988;2022-08-19T10:26:03;28.83;;;15.63;;
73142;SDS011;61343;53.694;9.988;2022-08-19T10:28:30;27.25;;;14.90;;
73142;SDS011;61343;53.694;9.988;2022-08-19T10:30:57;27.17;;;14.90;;
73142;SDS011;61343;53.694;9.988;2022-08-19T10:33:22;37.23;;;16.27;;
73142;SDS011;61343;53.694;9.988;2022-08-19T10:35:49;28.23;;;14.80;;
73142;SDS011;61343;53.694;9.988;2022-08-19T10:38:24;24.92;;;13.70;;
73142;SDS011;61343;53.694;9.988;2022-08-19T10:40:49;27.70;;;14.40;;
73142;SDS011;61343;53.694;9.988;2022-08-19T10:43:15;24.60;;;13.37;;
73142;SDS011;61343;53.694;9.988;2022-08-19T10:45:41;24.83;;;13.13;;
73142;SDS011;61343;53.694;9.988;2022-08-19T10:48:07;26.20;;;13.70;;
73142;SDS011;61343;53.694;9.988;2022-08-19T10:50:32;26.57;;;14.33;;
73142;SDS011;61343;53.694;9.988;2022-08-19T10:53:16;30.00;;;14.13;;
73142;SDS011;61343;53.694;9.988;2022-08-19T10:55:41;29.57;;;14.37;;
73142;SDS011;61343;53.694;9.988;2022-08-19T10:58:25;24.38;;;13.82;;
73142;SDS011;61343;53.694;9.988;2022-08-19T11:00:57;23.67;;;13.02;;
73142;SDS011;61343;53.694;9.988;2022-08-19T11:03:23;27.77;;;13.83;;
73142;SDS011;61343;53.694;9.988;2022-08-19T11:06:04;24.13;;;13.30;;
73142;SDS011;61343;53.694;9.988;2022-08-19T11:08:32;25.42;;;13.30;;
73142;SDS011;61343;53.694;9.988;2022-08-19T11:10:59;25.27;;;13.77;;
73142;SDS011;61343;53.694;9.988;2022-08-19T11:13:28;24.85;;;13.73;;
73142;SDS011;61343;53.694;9.988;2022-08-19T11:16:03;21.97;;;12.67;;
73142;SDS011;61343;53.694;9.988;2022-08-19T11:18:36;25.23;;;13.18;;
73142;SDS011;61343;53.694;9.988;2022-08-19T11:21:38;22.80;;;13.23;;
73142;SDS011;61343;53.694;9.988;2022-08-19T11:23:57;25.42;;;11.60;;
73142;SDS011;61343;53.694;9.988;2022-08-19T11:26:25;22.77;;;13.27;;
73142;SDS011;61343;53.694;9.988;2022-08-19T11:28:51;23.73;;;12.63;;
73142;SDS011;61343;53.694;9.988;2022-08-19T11:31:20;22.80;;;12.77;;
73142;SDS011;61343;53.694;9.988;2022-08-19T11:33:47;19.40;;;11.48;;
73142;SDS011;61343;53.694;9.988;2022-08-19T11:36:15;23.77;;;13.00;;
73142;SDS011;61343;53.694;9.988;2022-08-19T11:38:41;20.90;;;12.57;;
73142;SDS011;61343;53.694;9.988;2022-08-19T11:41:07;21.85;;;12.82;;
73142;SDS011;61343;53.694;9.988;2022-08-19T11:43:33;21.63;;;11.93;;
73142;SDS011;61343;53.694;9.988;2022-08-19T11:45:59;21.07;;;11.63;;
73142;SDS011;61343;53.694;9.988;2022-08-19T11:48:25;20.50;;;11.68;;
73142;SDS011;61343;53.694;9.988;2022-08-19T11:50:52;21.13;;;11.70;;
73142;SDS011;61343;53.694;9.988;2022-08-19T11:53:20;19.60;;;11.52;;
73142;SDS011;61343;53.694;9.988;2022-08-19T11:55:45;18.97;;;11.13;;
73142;SDS011;61343;53.694;9.988;2022-08-19T11:58:15;19.75;;;11.70;;
73142;SDS011;61343;53.694;9.988;2022-08-19T12:00:42;19.75;;;12.00;;
73142;SDS011;61343;53.694;9.988;2022-08-19T12:03:09;19.13;;;11.32;;
73142;SDS011;61343;53.694;9.988;2022-08-19T12:05:37;22.63;;;12.03;;
73142;SDS011;61343;53.694;9.988;2022-08-19T12:08:03;19.73;;;12.15;;
73142;SDS011;61343;53.694;9.988;2022-08-19T12:10:29;21.53;;;12.70;;
73142;SDS011;61343;53.694;9.988;2022-08-19T12:12:54;20.93;;;11.63;;
73142;SDS011;61343;53.694;9.988;2022-08-19T12:15:19;19.13;;;11.32;;
73142;SDS011;61343;53.694;9.988;2022-08-19T12:17:45;19.57;;;12.27;;
73142;SDS011;61343;53.694;9.988;2022-08-19T12:20:10;21.10;;;12.93;;
73142;SDS011;61343;53.694;9.988;2022-08-19T12:22:38;18.10;;;11.48;;
73142;SDS011;61343;53.694;9.988;2022-08-19T12:25:06;18.53;;;12.40;;
73142;SDS011;61343;53.694;9.988;2022-08-19T12:27:32;20.27;;;11.48;;
73142;SDS011;61343;53.694;9.988;2022-08-19T12:29:57;20.00;;;12.73;;
73142;SDS011;61343;53.694;9.988;2022-08-19T12:32:25;20.90;;;12.63;;
73142;SDS011;61343;53.694;9.988;2022-08-19T12:34:51;20.27;;;11.57;;
73142;SDS011;61343;53.694;9.988;2022-08-19T12:37:16;19.97;;;11.80;;
73142;SDS011;61343;53.694;9.988;2022-08-19T12:39:42;21.70;;;11.73;;
73142;SDS011;61343;53.694;9.988;2022-08-19T12:42:09;21.48;;;12.50;;
73142;SDS011;61343;53.694;9.988;2022-08-19T12:44:36;21.17;;;12.52;;
73142;SDS011;61343;53.694;9.988;2022-08-19T12:47:03;20.35;;;12.55;;
73142;SDS011;61343;53.694;9.988;2022-08-19T12:49:29;18.67;;;11.67;;
73142;SDS011;61343;53.694;9.988;2022-08-19T12:51:56;19.98;;;11.50;;
73142;SDS011;61343;53.694;9.988;2022-08-19T12:54:23;16.70;;;11.18;;
73142;SDS011;61343;53.694;9.988;2022-08-19T12:56:48;19.23;;;11.20;;
73142;SDS011;61343;53.694;9.988;2022-08-19T12:59:13;19.53;;;10.67;;
73142;SDS011;61343;53.694;9.988;2022-08-19T13:01:40;16.02;;;9.98;;
73142;SDS011;61343;53.694;9.988;2022-08-19T13:04:06;18.40;;;11.02;;
73142;SDS011;61343;53.694;9.988;2022-08-19T13:06:32;19.60;;;10.47;;
73142;SDS011;61343;53.694;9.988;2022-08-19T13:08:57;16.80;;;10.50;;
73142;SDS011;61343;53.694;9.988;2022-08-19T13:11:22;18.30;;;10.57;;
73142;SDS011;61343;53.694;9.988;2022-08-19T13:13:51;19.00;;;11.48;;
73142;SDS011;61343;53.694;9.988;2022-08-19T13:16:20;21.60;;;10.85;;
73142;SDS011;61343;53.694;9.988;2022-08-19T13:18:46;18.90;;;11.13;;
73142;SDS011;61343;53.694;9.988;2022-08-19T13:21:12;18.87;;;10.43;;
73142;SDS011;61343;53.694;9.988;2022-08-19T13:23:38;15.40;;;10.32;;
73142;SDS011;61343;53.694;9.988;2022-08-19T13:26:05;17.15;;;10.63;;
73142;SDS011;61343;53.694;9.988;2022-08-19T13:28:32;18.67;;;10.40;;
73142;SDS011;61343;53.694;9.988;2022-08-19T13:31:17;17.48;;;10.55;;
73142;SDS011;61343;53.694;9.988;2022-08-19T13:34:02;17.52;;;11.38;;
73142;SDS011;61343;53.694;9.988;2022-08-19T13:36:28;16.52;;;10.32;;
73142;SDS011;61343;53.694;9.988;2022-08-19T13:38:54;14.97;;;10.30;;
73142;SDS011;61343;53.694;9.988;2022-08-19T13:41:19;16.63;;;9.97;;
73142;SDS011;61343;53.694;9.988;2022-08-19T13:43:44;14.80;;;9.70;;
73142;SDS011;61343;53.694;9.988;2022-08-19T13:46:11;16.73;;;9.85;;
73142;SDS011;61343;53.694;9.988;2022-08-19T13:48:39;15.00;;;9.73;;
73142;SDS011;61343;53.694;9.988;2022-08-19T13:51:05;16.40;;;10.27;;
73142;SDS011;61343;53.694;9.988;2022-08-19T13:53:34;16.83;;;9.65;;
73142;SDS011;61343;53.694;9.988;2022-08-19T13:56:07;15.57;;;9.73;;
73142;SDS011;61343;53.694;9.988;2022-08-19T13:58:33;14.93;;;9.63;;
73142;SDS011;61343;53.694;9.988;2022-08-19T14:00:58;14.10;;;9.00;;
73142;SDS011;61343;53.694;9.988;2022-08-19T14:03:24;14.93;;;9.13;;
73142;SDS011;61343;53.694;9.988;2022-08-19T14:05:50;14.40;;;9.35;;
73142;SDS011;61343;53.694;9.988;2022-08-19T14:08:16;19.27;;;12.30;;
73142;SDS011;61343;53.694;9.988;2022-08-19T14:10:41;16.50;;;10.70;;
73142;SDS011;61343;53.694;9.988;2022-08-19T14:13:09;15.48;;;9.88;;
73142;SDS011;61343;53.694;9.988;2022-08-19T14:15:35;18.38;;;10.63;;
73142;SDS011;61343;53.694;9.988;2022-08-19T14:18:01;15.80;;;10.30;;
73142;SDS011;61343;53.694;9.988;2022-08-19T14:20:27;18.73;;;10.70;;
73142;SDS011;61343;53.694;9.988;2022-08-19T14:22:53;16.87;;;11.13;;
73142;SDS011;61343;53.694;9.988;2022-08-19T14:25:20;17.55;;;10.75;;
73142;SDS011;61343;53.694;9.988;2022-08-19T14:27:49;16.67;;;10.95;;